sensor_id;sensor_type;location;lat;lon;timestamp;temperature;humidity
79497;SHT31;75160;53.138;18.020;2024-02-23T00:00:59;9.45;75.25
79497;SHT31;75160;53.138;18.020;2024-02-23T00:02:21;9.44;75.32
79497;SHT31;75160;53.138;18.020;2024-02-23T00:03:23;9.44;75.40
79497;SHT31;75160;53.138;18.020;2024-02-23T00:04:24;9.44;75.40
79497;SHT31;75160;53.138;18.020;2024-02-23T00:05:26;9.45;75.40
79497;SHT31;75160;53.138;18.020;2024-02-23T00:06:28;9.44;75.40
79497;SHT31;75160;53.138;18.020;2024-02-23T00:07:30;9.45;75.32
79497;SHT31;75160;53.138;18.020;2024-02-23T00:08:32;9.45;75.25
79497;SHT31;75160;53.138;18.020;2024-02-23T00:09:34;9.47;75.30
79497;SHT31;75160;53.138;18.020;2024-02-23T00:10:36;9.46;75.38
79497;SHT31;75160;53.138;18.020;2024-02-23T00:11:41;9.46;75.35
79497;SHT31;75160;53.138;18.020;2024-02-23T00:12:45;9.46;75.32
79497;SHT31;75160;53.138;18.020;2024-02-23T00:13:49;9.47;75.30
79497;SHT31;75160;53.138;18.020;2024-02-23T00:14:51;9.48;75.32
79497;SHT31;75160;53.138;18.020;2024-02-23T00:15:52;9.48;75.30
79497;SHT31;75160;53.138;18.020;2024-02-23T00:16:54;9.48;75.30
79497;SHT31;75160;53.138;18.020;2024-02-23T00:17:56;9.49;75.30
79497;SHT31;75160;53.138;18.020;2024-02-23T00:18:58;9.48;75.40
79497;SHT31;75160;53.138;18.020;2024-02-23T00:20:00;9.51;75.40
79497;SHT31;75160;53.138;18.020;2024-02-23T00:21:01;9.51;75.38
79497;SHT31;75160;53.138;18.020;2024-02-23T00:22:04;9.53;75.40
79497;SHT31;75160;53.138;18.020;2024-02-23T00:23:05;9.52;75.38
79497;SHT31;75160;53.138;18.020;2024-02-23T00:24:07;9.54;75.32
79497;SHT31;75160;53.138;18.020;2024-02-23T00:25:09;9.55;75.40
79497;SHT31;75160;53.138;18.020;2024-02-23T00:26:11;9.56;75.40
79497;SHT31;75160;53.138;18.020;2024-02-23T00:27:13;9.55;75.38
79497;SHT31;75160;53.138;18.020;2024-02-23T00:28:14;9.56;75.40
79497;SHT31;75160;53.138;18.020;2024-02-23T00:29:17;9.56;75.40
79497;SHT31;75160;53.138;18.020;2024-02-23T00:30:19;9.57;75.40
79497;SHT31;75160;53.138;18.020;2024-02-23T00:31:21;9.57;75.40
79497;SHT31;75160;53.138;18.020;2024-02-23T00:32:22;9.58;75.30
79497;SHT31;75160;53.138;18.020;2024-02-23T00:33:24;9.58;75.30
79497;SHT31;75160;53.138;18.020;2024-02-23T00:34:26;9.60;75.30
79497;SHT31;75160;53.138;18.020;2024-02-23T00:35:28;9.60;75.30
79497;SHT31;75160;53.138;18.020;2024-02-23T00:36:30;9.61;75.30
79497;SHT31;75160;53.138;18.020;2024-02-23T00:37:32;9.60;75.30
79497;SHT31;75160;53.138;18.020;2024-02-23T00:38:37;9.61;75.25
79497;SHT31;75160;53.138;18.020;2024-02-23T00:39:38;9.62;75.28
79497;SHT31;75160;53.138;18.020;2024-02-23T00:40:40;9.61;75.28
79497;SHT31;75160;53.138;18.020;2024-02-23T00:41:42;9.64;75.30
79497;SHT31;75160;53.138;18.020;2024-02-23T00:42:44;9.62;75.30
79497;SHT31;75160;53.138;18.020;2024-02-23T00:43:45;9.63;75.30
79497;SHT31;75160;53.138;18.020;2024-02-23T00:44:48;9.64;75.30
79497;SHT31;75160;53.138;18.020;2024-02-23T00:45:50;9.64;75.28
79497;SHT31;75160;53.138;18.020;2024-02-23T00:46:52;9.64;75.20
79497;SHT31;75160;53.138;18.020;2024-02-23T00:47:54;9.65;75.28
79497;SHT31;75160;53.138;18.020;2024-02-23T00:48:56;9.65;75.30
79497;SHT31;75160;53.138;18.020;2024-02-23T00:49:57;9.65;75.30
79497;SHT31;75160;53.138;18.020;2024-02-23T00:51:00;9.65;75.30
79497;SHT31;75160;53.138;18.020;2024-02-23T00:52:04;9.65;75.30
79497;SHT31;75160;53.138;18.020;2024-02-23T00:53:06;9.66;75.30
79497;SHT31;75160;53.138;18.020;2024-02-23T00:54:08;9.65;75.30
79497;SHT31;75160;53.138;18.020;2024-02-23T00:55:09;9.66;75.32
79497;SHT31;75160;53.138;18.020;2024-02-23T00:56:12;9.67;75.30
79497;SHT31;75160;53.138;18.020;2024-02-23T00:57:17;9.67;75.25
79497;SHT31;75160;53.138;18.020;2024-02-23T00:58:23;9.67;75.20
79497;SHT31;75160;53.138;18.020;2024-02-23T00:59:25;9.67;75.30
79497;SHT31;75160;53.138;18.020;2024-02-23T01:00:28;9.68;75.30
79497;SHT31;75160;53.138;18.020;2024-02-23T01:01:30;9.68;75.30
79497;SHT31;75160;53.138;18.020;2024-02-23T01:02:33;9.69;75.30
79497;SHT31;75160;53.138;18.020;2024-02-23T01:03:35;9.69;75.22
79497;SHT31;75160;53.138;18.020;2024-02-23T01:04:37;9.69;75.15
79497;SHT31;75160;53.138;18.020;2024-02-23T01:05:38;9.69;75.20
79497;SHT31;75160;53.138;18.020;2024-02-23T01:06:41;9.69;75.20
79497;SHT31;75160;53.138;18.020;2024-02-23T01:07:42;9.71;75.20
79497;SHT31;75160;53.138;18.020;2024-02-23T01:08:44;9.72;75.30
79497;SHT31;75160;53.138;18.020;2024-02-23T01:09:46;9.72;75.28
79497;SHT31;75160;53.138;18.020;2024-02-23T01:10:48;9.72;75.30
79497;SHT31;75160;53.138;18.020;2024-02-23T01:11:50;9.72;75.18
79497;SHT31;75160;53.138;18.020;2024-02-23T01:12:52;9.72;75.20
79497;SHT31;75160;53.138;18.020;2024-02-23T01:13:54;9.72;75.25
79497;SHT31;75160;53.138;18.020;2024-02-23T01:14:56;9.73;75.20
79497;SHT31;75160;53.138;18.020;2024-02-23T01:15:57;9.73;75.25
79497;SHT31;75160;53.138;18.020;2024-02-23T01:16:59;9.74;75.28
79497;SHT31;75160;53.138;18.020;2024-02-23T01:18:01;9.73;75.22
79497;SHT31;75160;53.138;18.020;2024-02-23T01:19:07;9.75;75.20
79497;SHT31;75160;53.138;18.020;2024-02-23T01:20:10;9.75;75.20
79497;SHT31;75160;53.138;18.020;2024-02-23T01:21:12;9.76;75.20
79497;SHT31;75160;53.138;18.020;2024-02-23T01:22:15;9.76;75.22
79497;SHT31;75160;53.138;18.020;2024-02-23T01:23:17;9.76;75.25
79497;SHT31;75160;53.138;18.020;2024-02-23T01:24:19;9.75;75.25
79497;SHT31;75160;53.138;18.020;2024-02-23T01:25:21;9.76;75.30
79497;SHT31;75160;53.138;18.020;2024-02-23T01:26:24;9.76;75.30
79497;SHT31;75160;53.138;18.020;2024-02-23T01:27:26;9.77;75.30
79497;SHT31;75160;53.138;18.020;2024-02-23T01:28:27;9.77;75.32
79497;SHT31;75160;53.138;18.020;2024-02-23T01:29:29;9.78;75.32
79497;SHT31;75160;53.138;18.020;2024-02-23T01:30:31;9.78;75.35
79497;SHT31;75160;53.138;18.020;2024-02-23T01:31:33;9.79;75.32
79497;SHT31;75160;53.138;18.020;2024-02-23T01:32:35;9.79;75.30
79497;SHT31;75160;53.138;18.020;2024-02-23T01:33:39;9.77;75.30
79497;SHT31;75160;53.138;18.020;2024-02-23T01:34:41;9.79;75.30
79497;SHT31;75160;53.138;18.020;2024-02-23T01:35:42;9.78;75.30
79497;SHT31;75160;53.138;18.020;2024-02-23T01:36:44;9.78;75.32
79497;SHT31;75160;53.138;18.020;2024-02-23T01:37:46;9.79;75.40
79497;SHT31;75160;53.138;18.020;2024-02-23T01:38:48;9.78;75.40
79497;SHT31;75160;53.138;18.020;2024-02-23T01:39:49;9.78;75.40
79497;SHT31;75160;53.138;18.020;2024-02-23T01:40:51;9.79;75.40
79497;SHT31;75160;53.138;18.020;2024-02-23T01:41:53;9.77;75.40
79497;SHT31;75160;53.138;18.020;2024-02-23T01:43:03;9.78;75.47
79497;SHT31;75160;53.138;18.020;2024-02-23T01:44:07;9.77;75.53
79497;SHT31;75160;53.138;18.020;2024-02-23T01:45:09;9.76;75.55
79497;SHT31;75160;53.138;18.020;2024-02-23T01:46:11;9.77;75.57
79497;SHT31;75160;53.138;18.020;2024-02-23T01:47:13;9.77;75.60
79497;SHT31;75160;53.138;18.020;2024-02-23T01:48:15;9.77;75.68
79497;SHT31;75160;53.138;18.020;2024-02-23T01:49:17;9.76;75.70
79497;SHT31;75160;53.138;18.020;2024-02-23T01:50:22;9.75;75.78
79497;SHT31;75160;53.138;18.020;2024-02-23T01:51:24;9.74;75.80
79497;SHT31;75160;53.138;18.020;2024-02-23T01:52:27;9.75;75.80
79497;SHT31;75160;53.138;18.020;2024-02-23T01:53:28;9.74;75.80
79497;SHT31;75160;53.138;18.020;2024-02-23T01:54:32;9.73;75.82
79497;SHT31;75160;53.138;18.020;2024-02-23T01:55:35;9.72;75.90
79497;SHT31;75160;53.138;18.020;2024-02-23T01:56:39;9.72;75.90
79497;SHT31;75160;53.138;18.020;2024-02-23T01:57:41;9.71;75.90
79497;SHT31;75160;53.138;18.020;2024-02-23T01:58:43;9.71;76.00
79497;SHT31;75160;53.138;18.020;2024-02-23T01:59:48;9.71;76.05
79497;SHT31;75160;53.138;18.020;2024-02-23T02:00:51;9.69;76.07
79497;SHT31;75160;53.138;18.020;2024-02-23T02:01:53;9.70;76.10
79497;SHT31;75160;53.138;18.020;2024-02-23T02:02:55;9.70;76.10
79497;SHT31;75160;53.138;18.020;2024-02-23T02:04:00;9.70;76.10
79497;SHT31;75160;53.138;18.020;2024-02-23T02:05:02;9.70;76.10
79497;SHT31;75160;53.138;18.020;2024-02-23T02:06:09;9.69;76.10
79497;SHT31;75160;53.138;18.020;2024-02-23T02:07:11;9.70;76.13
79497;SHT31;75160;53.138;18.020;2024-02-23T02:08:13;9.70;76.13
79497;SHT31;75160;53.138;18.020;2024-02-23T02:09:16;9.69;76.18
79497;SHT31;75160;53.138;18.020;2024-02-23T02:10:19;9.71;76.20
79497;SHT31;75160;53.138;18.020;2024-02-23T02:11:22;9.70;76.20
79497;SHT31;75160;53.138;18.020;2024-02-23T02:12:27;9.70;76.20
79497;SHT31;75160;53.138;18.020;2024-02-23T02:13:30;9.71;76.20
79497;SHT31;75160;53.138;18.020;2024-02-23T02:14:32;9.71;76.25
79497;SHT31;75160;53.138;18.020;2024-02-23T02:15:34;9.71;76.25
79497;SHT31;75160;53.138;18.020;2024-02-23T02:16:36;9.72;76.25
79497;SHT31;75160;53.138;18.020;2024-02-23T02:17:38;9.72;76.30
79497;SHT31;75160;53.138;18.020;2024-02-23T02:18:40;9.70;76.30
79497;SHT31;75160;53.138;18.020;2024-02-23T02:19:46;9.72;76.30
79497;SHT31;75160;53.138;18.020;2024-02-23T02:20:59;9.72;76.35
79497;SHT31;75160;53.138;18.020;2024-02-23T02:22:00;9.73;76.35
79497;SHT31;75160;53.138;18.020;2024-02-23T02:23:03;9.72;76.40
79497;SHT31;75160;53.138;18.020;2024-02-23T02:24:05;9.72;76.53
79497;SHT31;75160;53.138;18.020;2024-02-23T02:25:08;9.73;76.63
79497;SHT31;75160;53.138;18.020;2024-02-23T02:26:10;9.73;76.60
79497;SHT31;75160;53.138;18.020;2024-02-23T02:27:12;9.74;76.60
79497;SHT31;75160;53.138;18.020;2024-02-23T02:28:14;9.73;76.60
79497;SHT31;75160;53.138;18.020;2024-02-23T02:29:15;9.75;76.60
79497;SHT31;75160;53.138;18.020;2024-02-23T02:30:17;9.74;76.70
79497;SHT31;75160;53.138;18.020;2024-02-23T02:31:19;9.76;76.75
79497;SHT31;75160;53.138;18.020;2024-02-23T02:32:22;9.74;76.78
79497;SHT31;75160;53.138;18.020;2024-02-23T02:33:25;9.75;76.82
79497;SHT31;75160;53.138;18.020;2024-02-23T02:34:26;9.75;76.90
79497;SHT31;75160;53.138;18.020;2024-02-23T02:35:30;9.76;76.97
79497;SHT31;75160;53.138;18.020;2024-02-23T02:36:32;9.75;77.00
79497;SHT31;75160;53.138;18.020;2024-02-23T02:37:34;9.76;77.00
79497;SHT31;75160;53.138;18.020;2024-02-23T02:38:36;9.78;77.03
79497;SHT31;75160;53.138;18.020;2024-02-23T02:39:38;9.78;77.05
79497;SHT31;75160;53.138;18.020;2024-02-23T02:40:39;9.78;77.10
79497;SHT31;75160;53.138;18.020;2024-02-23T02:41:41;9.78;77.13
79497;SHT31;75160;53.138;18.020;2024-02-23T02:42:43;9.80;77.20
79497;SHT31;75160;53.138;18.020;2024-02-23T02:43:45;9.79;77.20
79497;SHT31;75160;53.138;18.020;2024-02-23T02:44:47;9.81;77.18
79497;SHT31;75160;53.138;18.020;2024-02-23T02:45:49;9.80;77.20
79497;SHT31;75160;53.138;18.020;2024-02-23T02:46:51;9.81;77.22
79497;SHT31;75160;53.138;18.020;2024-02-23T02:47:53;9.81;77.35
79497;SHT31;75160;53.138;18.020;2024-02-23T02:48:55;9.82;77.47
79497;SHT31;75160;53.138;18.020;2024-02-23T02:49:56;9.81;77.40
79497;SHT31;75160;53.138;18.020;2024-02-23T02:50:58;9.83;77.40
79497;SHT31;75160;53.138;18.020;2024-02-23T02:52:00;9.81;77.40
79497;SHT31;75160;53.138;18.020;2024-02-23T02:53:03;9.82;77.43
79497;SHT31;75160;53.138;18.020;2024-02-23T02:54:04;9.82;77.50
79497;SHT31;75160;53.138;18.020;2024-02-23T02:55:07;9.83;77.50
79497;SHT31;75160;53.138;18.020;2024-02-23T02:56:10;9.83;77.50
79497;SHT31;75160;53.138;18.020;2024-02-23T02:57:11;9.83;77.60
79497;SHT31;75160;53.138;18.020;2024-02-23T02:58:15;9.84;77.60
79497;SHT31;75160;53.138;18.020;2024-02-23T02:59:17;9.84;77.63
79497;SHT31;75160;53.138;18.020;2024-02-23T03:00:19;9.83;77.60
79497;SHT31;75160;53.138;18.020;2024-02-23T03:01:22;9.84;77.60
79497;SHT31;75160;53.138;18.020;2024-02-23T03:02:23;9.84;77.65
79497;SHT31;75160;53.138;18.020;2024-02-23T03:03:25;9.84;77.70
79497;SHT31;75160;53.138;18.020;2024-02-23T03:04:27;9.85;77.80
79497;SHT31;75160;53.138;18.020;2024-02-23T03:05:48;9.85;77.93
79497;SHT31;75160;53.138;18.020;2024-02-23T03:06:50;9.85;77.88
79497;SHT31;75160;53.138;18.020;2024-02-23T03:07:52;9.86;77.85
79497;SHT31;75160;53.138;18.020;2024-02-23T03:08:54;9.87;77.82
79497;SHT31;75160;53.138;18.020;2024-02-23T03:09:55;9.87;77.90
79497;SHT31;75160;53.138;18.020;2024-02-23T03:10:57;9.87;77.90
79497;SHT31;75160;53.138;18.020;2024-02-23T03:11:59;9.88;77.90
79497;SHT31;75160;53.138;18.020;2024-02-23T03:13:01;9.88;77.95
79497;SHT31;75160;53.138;18.020;2024-02-23T03:14:03;9.88;77.95
79497;SHT31;75160;53.138;18.020;2024-02-23T03:15:05;9.89;78.00
79497;SHT31;75160;53.138;18.020;2024-02-23T03:16:14;9.90;78.00
79497;SHT31;75160;53.138;18.020;2024-02-23T03:17:19;9.91;78.03
79497;SHT31;75160;53.138;18.020;2024-02-23T03:18:21;9.91;78.00
79497;SHT31;75160;53.138;18.020;2024-02-23T03:19:23;9.93;78.00
79497;SHT31;75160;53.138;18.020;2024-02-23T03:20:25;9.92;78.00
79497;SHT31;75160;53.138;18.020;2024-02-23T03:21:27;9.94;78.05
79497;SHT31;75160;53.138;18.020;2024-02-23T03:22:28;9.94;78.10
79497;SHT31;75160;53.138;18.020;2024-02-23T03:23:30;9.95;78.10
79497;SHT31;75160;53.138;18.020;2024-02-23T03:24:32;9.95;78.07
79497;SHT31;75160;53.138;18.020;2024-02-23T03:25:34;9.97;78.10
79497;SHT31;75160;53.138;18.020;2024-02-23T03:26:36;9.97;78.10
79497;SHT31;75160;53.138;18.020;2024-02-23T03:27:38;9.99;78.10
79497;SHT31;75160;53.138;18.020;2024-02-23T03:28:40;9.99;78.10
79497;SHT31;75160;53.138;18.020;2024-02-23T03:29:41;9.99;78.15
79497;SHT31;75160;53.138;18.020;2024-02-23T03:30:43;9.99;78.13
79497;SHT31;75160;53.138;18.020;2024-02-23T03:31:45;10.01;78.20
79497;SHT31;75160;53.138;18.020;2024-02-23T03:32:47;10.05;78.20
79497;SHT31;75160;53.138;18.020;2024-02-23T03:33:48;10.03;78.20
79497;SHT31;75160;53.138;18.020;2024-02-23T03:34:50;10.05;78.20
79497;SHT31;75160;53.138;18.020;2024-02-23T03:35:52;10.05;78.20
79497;SHT31;75160;53.138;18.020;2024-02-23T03:36:55;10.06;78.20
79497;SHT31;75160;53.138;18.020;2024-02-23T03:37:56;10.06;78.20
79497;SHT31;75160;53.138;18.020;2024-02-23T03:38:58;10.07;78.20
79497;SHT31;75160;53.138;18.020;2024-02-23T03:40:00;10.08;78.18
79497;SHT31;75160;53.138;18.020;2024-02-23T03:41:02;10.10;78.18
79497;SHT31;75160;53.138;18.020;2024-02-23T03:42:04;10.09;78.20
79497;SHT31;75160;53.138;18.020;2024-02-23T03:43:06;10.10;78.20
79497;SHT31;75160;53.138;18.020;2024-02-23T03:44:08;10.10;78.20
79497;SHT31;75160;53.138;18.020;2024-02-23T03:45:10;10.11;78.20
79497;SHT31;75160;53.138;18.020;2024-02-23T03:46:11;10.12;78.20
79497;SHT31;75160;53.138;18.020;2024-02-23T03:47:14;10.13;78.20
79497;SHT31;75160;53.138;18.020;2024-02-23T03:48:17;10.14;78.20
79497;SHT31;75160;53.138;18.020;2024-02-23T03:49:18;10.15;78.20
79497;SHT31;75160;53.138;18.020;2024-02-23T03:50:20;10.15;78.20
79497;SHT31;75160;53.138;18.020;2024-02-23T03:51:22;10.15;78.20
79497;SHT31;75160;53.138;18.020;2024-02-23T03:52:26;10.16;78.20
79497;SHT31;75160;53.138;18.020;2024-02-23T03:53:28;10.16;78.20
79497;SHT31;75160;53.138;18.020;2024-02-23T03:54:29;10.16;78.22
79497;SHT31;75160;53.138;18.020;2024-02-23T03:55:32;10.16;78.20
79497;SHT31;75160;53.138;18.020;2024-02-23T03:56:38;10.17;78.20
79497;SHT31;75160;53.138;18.020;2024-02-23T03:57:43;10.17;78.20
79497;SHT31;75160;53.138;18.020;2024-02-23T03:58:45;10.18;78.22
79497;SHT31;75160;53.138;18.020;2024-02-23T03:59:53;10.18;78.28
79497;SHT31;75160;53.138;18.020;2024-02-23T04:00:57;10.18;78.25
79497;SHT31;75160;53.138;18.020;2024-02-23T04:01:58;10.18;78.22
79497;SHT31;75160;53.138;18.020;2024-02-23T04:03:00;10.18;78.28
79497;SHT31;75160;53.138;18.020;2024-02-23T04:04:03;10.18;78.30
79497;SHT31;75160;53.138;18.020;2024-02-23T04:05:06;10.19;78.30
79497;SHT31;75160;53.138;18.020;2024-02-23T04:06:08;10.18;78.30
79497;SHT31;75160;53.138;18.020;2024-02-23T04:07:10;10.18;78.30
79497;SHT31;75160;53.138;18.020;2024-02-23T04:08:12;10.16;78.30
79497;SHT31;75160;53.138;18.020;2024-02-23T04:09:14;10.18;78.32
79497;SHT31;75160;53.138;18.020;2024-02-23T04:10:16;10.18;78.30
79497;SHT31;75160;53.138;18.020;2024-02-23T04:11:18;10.17;78.32
79497;SHT31;75160;53.138;18.020;2024-02-23T04:12:20;10.15;78.32
79497;SHT31;75160;53.138;18.020;2024-02-23T04:13:23;10.15;78.40
79497;SHT31;75160;53.138;18.020;2024-02-23T04:14:25;10.16;78.50
79497;SHT31;75160;53.138;18.020;2024-02-23T04:15:27;10.15;78.50
79497;SHT31;75160;53.138;18.020;2024-02-23T04:16:29;10.16;78.43
79497;SHT31;75160;53.138;18.020;2024-02-23T04:17:31;10.16;78.43
79497;SHT31;75160;53.138;18.020;2024-02-23T04:18:32;10.15;78.53
79497;SHT31;75160;53.138;18.020;2024-02-23T04:19:34;10.16;78.55
79497;SHT31;75160;53.138;18.020;2024-02-23T04:20:36;10.18;78.50
79497;SHT31;75160;53.138;18.020;2024-02-23T04:21:38;10.18;78.50
79497;SHT31;75160;53.138;18.020;2024-02-23T04:22:39;10.17;78.50
79497;SHT31;75160;53.138;18.020;2024-02-23T04:23:42;10.19;78.50
79497;SHT31;75160;53.138;18.020;2024-02-23T04:24:45;10.19;78.50
79497;SHT31;75160;53.138;18.020;2024-02-23T04:25:47;10.20;78.53
79497;SHT31;75160;53.138;18.020;2024-02-23T04:26:49;10.21;78.53
79497;SHT31;75160;53.138;18.020;2024-02-23T04:27:50;10.22;78.50
79497;SHT31;75160;53.138;18.020;2024-02-23T04:28:52;10.21;78.50
79497;SHT31;75160;53.138;18.020;2024-02-23T04:29:54;10.23;78.50
79497;SHT31;75160;53.138;18.020;2024-02-23T04:30:56;10.24;78.53
79497;SHT31;75160;53.138;18.020;2024-02-23T04:31:59;10.24;78.50
79497;SHT31;75160;53.138;18.020;2024-02-23T04:33:02;10.27;78.50
79497;SHT31;75160;53.138;18.020;2024-02-23T04:34:04;10.29;78.55
79497;SHT31;75160;53.138;18.020;2024-02-23T04:35:06;10.29;78.55
79497;SHT31;75160;53.138;18.020;2024-02-23T04:36:08;10.31;78.50
79497;SHT31;75160;53.138;18.020;2024-02-23T04:37:10;10.31;78.47
79497;SHT31;75160;53.138;18.020;2024-02-23T04:38:13;10.32;78.43
79497;SHT31;75160;53.138;18.020;2024-02-23T04:39:15;10.32;78.40
79497;SHT31;75160;53.138;18.020;2024-02-23T04:40:17;10.34;78.40
79497;SHT31;75160;53.138;18.020;2024-02-23T04:41:19;10.34;78.40
79497;SHT31;75160;53.138;18.020;2024-02-23T04:42:24;10.35;78.40
79497;SHT31;75160;53.138;18.020;2024-02-23T04:43:26;10.36;78.40
79497;SHT31;75160;53.138;18.020;2024-02-23T04:44:28;10.37;78.40
79497;SHT31;75160;53.138;18.020;2024-02-23T04:45:30;10.39;78.40
79497;SHT31;75160;53.138;18.020;2024-02-23T04:46:32;10.40;78.40
79497;SHT31;75160;53.138;18.020;2024-02-23T04:47:35;10.43;78.40
79497;SHT31;75160;53.138;18.020;2024-02-23T04:48:37;10.43;78.32
79497;SHT31;75160;53.138;18.020;2024-02-23T04:49:39;10.43;78.30
79497;SHT31;75160;53.138;18.020;2024-02-23T04:50:41;10.45;78.30
79497;SHT31;75160;53.138;18.020;2024-02-23T04:51:43;10.45;78.30
79497;SHT31;75160;53.138;18.020;2024-02-23T04:52:45;10.47;78.30
79497;SHT31;75160;53.138;18.020;2024-02-23T04:53:47;10.47;78.28
79497;SHT31;75160;53.138;18.020;2024-02-23T04:54:48;10.47;78.30
79497;SHT31;75160;53.138;18.020;2024-02-23T04:55:50;10.48;78.28
79497;SHT31;75160;53.138;18.020;2024-02-23T04:56:52;10.50;78.28
79497;SHT31;75160;53.138;18.020;2024-02-23T04:57:54;10.49;78.20
79497;SHT31;75160;53.138;18.020;2024-02-23T04:58:56;10.51;78.20
79497;SHT31;75160;53.138;18.020;2024-02-23T04:59:59;10.52;78.25
79497;SHT31;75160;53.138;18.020;2024-02-23T05:01:01;10.52;78.22
79497;SHT31;75160;53.138;18.020;2024-02-23T05:02:04;10.53;78.20
79497;SHT31;75160;53.138;18.020;2024-02-23T05:03:06;10.54;78.20
79497;SHT31;75160;53.138;18.020;2024-02-23T05:04:08;10.56;78.20
79497;SHT31;75160;53.138;18.020;2024-02-23T05:05:10;10.57;78.20
79497;SHT31;75160;53.138;18.020;2024-02-23T05:06:12;10.57;78.18
79497;SHT31;75160;53.138;18.020;2024-02-23T05:07:14;10.59;78.10
79497;SHT31;75160;53.138;18.020;2024-02-23T05:08:16;10.60;78.10
79497;SHT31;75160;53.138;18.020;2024-02-23T05:09:18;10.62;78.03
79497;SHT31;75160;53.138;18.020;2024-02-23T05:10:20;10.64;78.00
79497;SHT31;75160;53.138;18.020;2024-02-23T05:11:22;10.64;78.00
79497;SHT31;75160;53.138;18.020;2024-02-23T05:12:24;10.66;77.97
79497;SHT31;75160;53.138;18.020;2024-02-23T05:13:25;10.68;77.95
79497;SHT31;75160;53.138;18.020;2024-02-23T05:14:28;10.69;77.90
79497;SHT31;75160;53.138;18.020;2024-02-23T05:15:30;10.69;77.93
79497;SHT31;75160;53.138;18.020;2024-02-23T05:16:32;10.69;77.90
79497;SHT31;75160;53.138;18.020;2024-02-23T05:17:33;10.71;77.85
79497;SHT31;75160;53.138;18.020;2024-02-23T05:18:35;10.71;77.80
79497;SHT31;75160;53.138;18.020;2024-02-23T05:19:37;10.72;77.80
79497;SHT31;75160;53.138;18.020;2024-02-23T05:20:39;10.73;77.80
79497;SHT31;75160;53.138;18.020;2024-02-23T05:21:41;10.73;77.78
79497;SHT31;75160;53.138;18.020;2024-02-23T05:22:42;10.74;77.75
79497;SHT31;75160;53.138;18.020;2024-02-23T05:23:44;10.75;77.70
79497;SHT31;75160;53.138;18.020;2024-02-23T05:24:47;10.75;77.70
79497;SHT31;75160;53.138;18.020;2024-02-23T05:25:49;10.77;77.68
79497;SHT31;75160;53.138;18.020;2024-02-23T05:26:51;10.76;77.68
79497;SHT31;75160;53.138;18.020;2024-02-23T05:27:53;10.77;77.65
79497;SHT31;75160;53.138;18.020;2024-02-23T05:28:54;10.78;77.60
79497;SHT31;75160;53.138;18.020;2024-02-23T05:29:56;10.77;77.60
79497;SHT31;75160;53.138;18.020;2024-02-23T05:31:02;10.78;77.60
79497;SHT31;75160;53.138;18.020;2024-02-23T05:32:07;10.77;77.53
79497;SHT31;75160;53.138;18.020;2024-02-23T05:33:09;10.76;77.55
79497;SHT31;75160;53.138;18.020;2024-02-23T05:34:11;10.76;77.53
79497;SHT31;75160;53.138;18.020;2024-02-23T05:35:12;10.77;77.50
79497;SHT31;75160;53.138;18.020;2024-02-23T05:36:14;10.76;77.50
79497;SHT31;75160;53.138;18.020;2024-02-23T05:37:17;10.78;77.50
79497;SHT31;75160;53.138;18.020;2024-02-23T05:38:19;10.77;77.50
79497;SHT31;75160;53.138;18.020;2024-02-23T05:39:21;10.76;77.40
79497;SHT31;75160;53.138;18.020;2024-02-23T05:40:23;10.76;77.45
79497;SHT31;75160;53.138;18.020;2024-02-23T05:41:24;10.76;77.43
79497;SHT31;75160;53.138;18.020;2024-02-23T05:42:26;10.77;77.43
79497;SHT31;75160;53.138;18.020;2024-02-23T05:43:28;10.75;77.40
79497;SHT31;75160;53.138;18.020;2024-02-23T05:44:30;10.76;77.40
79497;SHT31;75160;53.138;18.020;2024-02-23T05:45:32;10.77;77.40
79497;SHT31;75160;53.138;18.020;2024-02-23T05:46:34;10.75;77.40
79497;SHT31;75160;53.138;18.020;2024-02-23T05:47:38;10.76;77.38
79497;SHT31;75160;53.138;18.020;2024-02-23T05:48:40;10.76;77.38
79497;SHT31;75160;53.138;18.020;2024-02-23T05:49:42;10.76;77.40
79497;SHT31;75160;53.138;18.020;2024-02-23T05:50:44;10.76;77.38
79497;SHT31;75160;53.138;18.020;2024-02-23T05:51:46;10.75;77.35
79497;SHT31;75160;53.138;18.020;2024-02-23T05:52:47;10.76;77.38
79497;SHT31;75160;53.138;18.020;2024-02-23T05:53:49;10.75;77.35
79497;SHT31;75160;53.138;18.020;2024-02-23T05:54:51;10.75;77.35
79497;SHT31;75160;53.138;18.020;2024-02-23T05:55:55;10.74;77.30
79497;SHT31;75160;53.138;18.020;2024-02-23T05:56:56;10.74;77.32
79497;SHT31;75160;53.138;18.020;2024-02-23T05:57:58;10.74;77.32
79497;SHT31;75160;53.138;18.020;2024-02-23T05:59:04;10.74;77.30
79497;SHT31;75160;53.138;18.020;2024-02-23T06:00:07;10.74;77.35
79497;SHT31;75160;53.138;18.020;2024-02-23T06:01:09;10.75;77.30
79497;SHT31;75160;53.138;18.020;2024-02-23T06:02:14;10.75;77.30
79497;SHT31;75160;53.138;18.020;2024-02-23T06:03:17;10.75;77.30
79497;SHT31;75160;53.138;18.020;2024-02-23T06:04:19;10.75;77.30
79497;SHT31;75160;53.138;18.020;2024-02-23T06:05:21;10.75;77.30
79497;SHT31;75160;53.138;18.020;2024-02-23T06:06:23;10.76;77.28
79497;SHT31;75160;53.138;18.020;2024-02-23T06:07:25;10.77;77.28
79497;SHT31;75160;53.138;18.020;2024-02-23T06:08:30;10.76;77.28
79497;SHT31;75160;53.138;18.020;2024-02-23T06:09:32;10.75;77.22
79497;SHT31;75160;53.138;18.020;2024-02-23T06:10:34;10.76;77.20
79497;SHT31;75160;53.138;18.020;2024-02-23T06:11:36;10.77;77.20
79497;SHT31;75160;53.138;18.020;2024-02-23T06:12:38;10.77;77.20
79497;SHT31;75160;53.138;18.020;2024-02-23T06:13:40;10.78;77.13
79497;SHT31;75160;53.138;18.020;2024-02-23T06:14:42;10.78;77.10
79497;SHT31;75160;53.138;18.020;2024-02-23T06:15:44;10.77;77.10
79497;SHT31;75160;53.138;18.020;2024-02-23T06:16:46;10.80;77.10
79497;SHT31;75160;53.138;18.020;2024-02-23T06:17:48;10.81;77.10
79497;SHT31;75160;53.138;18.020;2024-02-23T06:18:50;10.81;77.05
79497;SHT31;75160;53.138;18.020;2024-02-23T06:19:52;10.81;77.00
79497;SHT31;75160;53.138;18.020;2024-02-23T06:21:01;10.82;77.00
79497;SHT31;75160;53.138;18.020;2024-02-23T06:22:03;10.81;77.00
79497;SHT31;75160;53.138;18.020;2024-02-23T06:23:05;10.82;77.00
79497;SHT31;75160;53.138;18.020;2024-02-23T06:24:07;10.82;77.00
79497;SHT31;75160;53.138;18.020;2024-02-23T06:25:10;10.83;77.00
79497;SHT31;75160;53.138;18.020;2024-02-23T06:26:13;10.83;76.93
79497;SHT31;75160;53.138;18.020;2024-02-23T06:27:14;10.84;76.93
79497;SHT31;75160;53.138;18.020;2024-02-23T06:28:16;10.85;76.93
79497;SHT31;75160;53.138;18.020;2024-02-23T06:29:18;10.85;76.93
79497;SHT31;75160;53.138;18.020;2024-02-23T06:30:20;10.85;76.90
79497;SHT31;75160;53.138;18.020;2024-02-23T06:31:22;10.87;76.90
79497;SHT31;75160;53.138;18.020;2024-02-23T06:32:24;10.88;76.90